This is the latest recevied weather packets stored in our database for station/object KA9CBS. If no packets are shown the sender has not sent any weather packets the latest 10 day(s).
| Time | Temp. | Humidity | Pressure | Rain* | Wind** | Luminosity | Snow |
|---|---|---|---|---|---|---|---|
| 1778026467 | 9.44° C | 99% | 1009.9 hPa | 0 mm | - | 0 W/m² | - |
| 1778026164 | 9.44° C | 99% | 1009.9 hPa | 0 mm | - | 0 W/m² | - |
| 1778025861 | 9.44° C | 99% | 1009.9 hPa | 0 mm | - | 0 W/m² | - |
| 1778025558 | 10° C | 99% | 1010 hPa | 0 mm | - | 0 W/m² | - |
| 1778025256 | 9.44° C | 99% | 1010 hPa | 0 mm | - | 2 W/m² | - |
| 1778024952 | 9.44° C | 99% | 1010.3 hPa | 0 mm | - | 3 W/m² | - |
| 1778024650 | 10° C | 99% | 1010.2 hPa | 0 mm | - | 3 W/m² | - |
| 1778024347 | 10° C | 98% | 1010 hPa | 0 mm | - | 5 W/m² | - |
| 1778024045 | 9.44° C | 98% | 1009.9 hPa | 0 mm | - | 13 W/m² | - |
| 1778023742 | 9.44° C | 98% | 1009.8 hPa | 0 mm | - | 14 W/m² | - |
| 1778023440 | 10° C | 98% | 1010.1 hPa | 0 mm | - | 12 W/m² | - |
| 1778023136 | 9.44° C | 98% | 1009.9 hPa | 0 mm | - | 17 W/m² | - |
| 1778022833 | 10° C | 98% | 1010.1 hPa | 0 mm | - | 20 W/m² | - |
| 1778022526 | 9.44° C | 98% | 1010.2 hPa | 0 mm | - | 18 W/m² | - |
| 1778022223 | 10° C | 99% | 1010.2 hPa | 0 mm | - | 23 W/m² | - |
| 1778021919 | 9.44° C | 99% | 1009.6 hPa | 0 mm | - | 38 W/m² | - |
| 1778021616 | 10° C | 99% | 1009.7 hPa | 0 mm | - | 47 W/m² | - |
| 1778021311 | 9.44° C | 99% | 1009.7 hPa | 1.27 mm | - | 64 W/m² | - |
| 1778021010 | 10° C | 99% | 1009.6 hPa | 1.27 mm | - | 86 W/m² | - |
| 1778020706 | 9.44° C | 99% | 1010.2 hPa | 0 mm | - | 60 W/m² | - |
| 1778020403 | 9.44° C | 99% | 1010.3 hPa | 0 mm | - | 49 W/m² | - |
| 1778020099 | 9.44° C | 99% | 1010.2 hPa | 0 mm | - | 61 W/m² | - |
| 1778019795 | 10° C | 99% | 1010.6 hPa | 0 mm | - | 32 W/m² | - |
| 1778019493 | 10° C | 99% | 1010.4 hPa | 0 mm | - | 23 W/m² | - |
| 1778019189 | 10° C | 99% | 1010.3 hPa | 0 mm | - | 49 W/m² | - |
* Rain latest hour (hover to see other rain measurements)
** Current wind speed in m/s (hover to see current wind gust speed)